createdAt,value
2019-02-20T00:01:06.204Z,11.90
2019-02-20T00:05:59.584Z,12.17
2019-02-20T00:10:51.504Z,11.73
2019-02-20T00:15:43.830Z,11.43
2019-02-20T00:20:36.445Z,15.77
2019-02-20T00:25:28.772Z,11.40
2019-02-20T00:30:21.410Z,12.03
2019-02-20T00:35:13.853Z,9.57
2019-02-20T00:40:09.384Z,8.13
2019-02-20T00:45:03.153Z,8.37
2019-02-20T00:49:56.605Z,9.40
2019-02-20T00:54:49.086Z,10.03
2019-02-20T00:59:41.557Z,13.00
2019-02-20T01:04:34.075Z,13.80
2019-02-20T01:09:27.005Z,12.83
2019-02-20T01:14:19.301Z,9.70
2019-02-20T01:19:11.681Z,10.87
2019-02-20T01:24:04.121Z,11.93
2019-02-20T01:28:56.880Z,12.93
2019-02-20T01:33:49.278Z,16.10
2019-02-20T01:38:41.832Z,12.53
2019-02-20T01:43:34.226Z,13.17
2019-02-20T01:48:26.769Z,12.00
2019-02-20T01:53:19.394Z,12.53
2019-02-20T01:58:11.941Z,12.47
2019-02-20T02:03:04.848Z,11.37
2019-02-20T02:07:57.473Z,11.77
2019-02-20T02:12:49.825Z,10.97
2019-02-20T02:17:42.093Z,11.37
2019-02-20T02:22:34.453Z,12.50
2019-02-20T02:27:27.095Z,10.00
2019-02-20T02:32:19.556Z,9.97
2019-02-20T02:37:31.458Z,8.20
2019-02-20T02:42:24.067Z,10.57
2019-02-20T02:47:16.967Z,8.83
2019-02-20T02:52:09.423Z,10.87
2019-02-20T02:57:01.690Z,12.27
2019-02-20T03:01:54.389Z,13.37
2019-02-20T03:06:46.924Z,12.80
2019-02-20T03:11:39.534Z,13.27
2019-02-20T03:16:32.285Z,12.47
2019-02-20T03:21:24.768Z,11.70
2019-02-20T03:26:17.273Z,14.60
2019-02-20T03:31:09.866Z,15.27
2019-02-20T03:36:02.506Z,13.23
2019-02-20T03:40:54.900Z,13.47
2019-02-20T03:45:46.907Z,13.23
2019-02-20T03:50:39.405Z,12.27
2019-02-20T03:55:34.901Z,11.23
2019-02-20T04:00:27.473Z,13.13
2019-02-20T04:05:19.782Z,12.23
2019-02-20T04:10:12.237Z,13.97
2019-02-20T04:15:07.010Z,12.67
2019-02-20T04:19:59.741Z,12.47
2019-02-20T04:24:52.093Z,11.80
2019-02-20T04:29:44.425Z,12.13
2019-02-20T04:34:36.979Z,13.00
2019-02-20T04:39:29.835Z,14.30
2019-02-20T04:44:22.542Z,11.87
2019-02-20T04:49:14.543Z,11.30
2019-02-20T04:54:13.249Z,9.67
2019-02-20T04:59:01.621Z,9.60
2019-02-20T05:03:54.183Z,10.07
2019-02-20T05:08:46.758Z,17.80
2019-02-20T05:13:39.037Z,12.13
2019-02-20T05:18:33.577Z,10.13
2019-02-20T05:23:25.941Z,10.20
2019-02-20T05:28:18.645Z,12.53
2019-02-20T05:33:11.509Z,16.73
2019-02-20T05:38:05.394Z,11.37
2019-02-20T05:42:57.625Z,10.07
2019-02-20T05:47:50.089Z,9.40
2019-02-20T05:52:42.973Z,9.97
2019-02-20T05:57:36.483Z,10.23
2019-02-20T06:02:29.299Z,9.87
2019-02-20T06:07:21.923Z,10.00
2019-02-20T06:12:14.655Z,10.10
2019-02-20T06:17:07.330Z,13.93
2019-02-20T06:21:59.632Z,14.17
2019-02-20T06:26:52.266Z,16.27
2019-02-20T06:31:45.061Z,16.67
2019-02-20T06:36:37.555Z,14.47
2019-02-20T06:41:38.602Z,15.13
2019-02-20T06:46:23.946Z,16.23
2019-02-20T06:51:16.437Z,17.57
2019-02-20T06:56:08.857Z,18.47
2019-02-20T07:01:01.459Z,16.37
2019-02-20T07:05:57.397Z,30.60
2019-02-20T07:11:13.844Z,19.90
2019-02-20T07:16:33.644Z,20.43
2019-02-20T07:21:45.703Z,24.50
2019-02-20T07:26:40.987Z,27.00
2019-02-20T07:31:33.588Z,29.93
2019-02-20T07:36:26.338Z,27.00
2019-02-20T07:41:18.917Z,25.13
2019-02-20T07:46:11.306Z,25.63
2019-02-20T07:51:04.021Z,24.57
2019-02-20T07:55:56.468Z,31.27
2019-02-20T08:00:49.300Z,28.70
2019-02-20T08:05:41.744Z,26.47
2019-02-20T08:10:34.432Z,30.87
2019-02-20T08:15:26.717Z,29.63
2019-02-20T08:20:19.498Z,28.03
2019-02-20T08:25:11.997Z,28.37
2019-02-20T08:30:07.194Z,27.20
2019-02-20T08:34:59.812Z,30.00
2019-02-20T08:39:52.470Z,30.33
2019-02-20T08:44:44.777Z,31.27
2019-02-20T08:49:37.151Z,30.27
2019-02-20T08:54:29.531Z,32.30
2019-02-20T08:59:22.203Z,31.07
2019-02-20T09:04:14.965Z,30.93
2019-02-20T09:09:07.357Z,31.30
2019-02-20T09:14:00.017Z,29.30
2019-02-20T09:19:11.671Z,30.40
2019-02-20T09:24:04.061Z,31.90
2019-02-20T09:28:56.977Z,31.03
2019-02-20T09:33:49.213Z,31.30
2019-02-20T09:38:41.531Z,31.83
2019-02-20T09:43:34.273Z,29.90
2019-02-20T09:48:26.921Z,32.13
2019-02-20T09:53:19.213Z,31.60
2019-02-20T09:58:11.677Z,30.93
2019-02-20T10:03:04.032Z,32.13
2019-02-20T10:07:56.854Z,32.03
2019-02-20T10:12:49.538Z,33.57
2019-02-20T10:17:42.104Z,30.70
2019-02-20T10:22:34.781Z,34.97
2019-02-20T10:27:27.475Z,31.17
2019-02-20T10:32:20.241Z,30.87
2019-02-20T10:37:12.496Z,29.97
2019-02-20T10:42:05.019Z,30.33
2019-02-20T10:46:57.401Z,31.27
2019-02-20T10:51:49.797Z,29.27
2019-02-20T10:56:42.577Z,29.57
2019-02-20T11:01:35.048Z,29.18
2019-02-20T11:06:27.598Z,31.15
2019-02-20T11:11:20.321Z,34.95
2019-02-20T11:16:13.104Z,34.27
2019-02-20T11:21:05.737Z,32.40
2019-02-20T11:25:58.556Z,30.72
2019-02-20T11:30:50.878Z,29.75
2019-02-20T11:35:43.833Z,30.43
2019-02-20T11:40:36.125Z,24.87
2019-02-20T11:45:28.613Z,59.88
2019-02-20T11:50:21.259Z,25.80
2019-02-20T11:55:15.852Z,22.67
2019-02-20T12:00:17.395Z,23.60
2019-02-20T12:05:10.058Z,24.60
2019-02-20T12:10:02.272Z,32.88
2019-02-20T12:14:54.840Z,27.60
2019-02-20T12:19:47.392Z,30.23
2019-02-20T12:24:39.649Z,21.95
2019-02-20T12:29:32.393Z,21.75
2019-02-20T12:34:25.214Z,16.70
2019-02-20T12:39:17.909Z,15.72
2019-02-20T12:44:10.354Z,14.58
2019-02-20T12:49:02.973Z,15.08
2019-02-20T12:53:55.557Z,15.80
2019-02-20T12:58:48.053Z,15.78
2019-02-20T13:03:40.545Z,13.90
2019-02-20T13:08:33.175Z,14.98
2019-02-20T13:13:25.969Z,14.73
2019-02-20T13:18:18.575Z,15.20
2019-02-20T13:23:10.914Z,16.62
2019-02-20T13:28:03.212Z,15.50
2019-02-20T13:32:55.690Z,23.12
2019-02-20T13:37:48.049Z,15.53
2019-02-20T13:42:40.448Z,14.63
2019-02-20T13:47:33.109Z,12.18
2019-02-20T13:52:25.890Z,11.95
2019-02-20T13:57:18.418Z,13.18
2019-02-20T14:02:10.862Z,13.62
2019-02-20T14:07:03.527Z,13.30
2019-02-20T14:11:56.359Z,13.93
2019-02-20T14:16:48.992Z,13.20
2019-02-20T14:21:41.655Z,12.55
2019-02-20T14:26:34.175Z,10.88
2019-02-20T14:31:26.919Z,11.95
2019-02-20T14:36:19.447Z,13.93
2019-02-20T14:41:11.857Z,11.55
2019-02-20T14:46:04.550Z,12.45
2019-02-20T14:50:56.832Z,13.08
2019-02-20T14:55:49.541Z,13.03
2019-02-20T15:00:42.169Z,16.67
2019-02-20T15:05:35.109Z,15.23
2019-02-20T15:10:27.789Z,13.98
2019-02-20T15:15:20.092Z,14.03
2019-02-20T15:20:12.941Z,17.02
2019-02-20T15:25:07.530Z,13.08
2019-02-20T15:29:59.953Z,12.75
2019-02-20T15:34:52.761Z,14.73
2019-02-20T15:39:47.153Z,18.55
2019-02-20T15:44:39.961Z,13.62
2019-02-20T15:49:32.518Z,11.12
2019-02-20T15:54:25.591Z,11.00
2019-02-20T15:59:17.933Z,10.98
2019-02-20T16:04:10.712Z,12.43
2019-02-20T16:09:03.817Z,12.65
2019-02-20T16:13:55.997Z,11.75
2019-02-20T16:18:48.476Z,12.15
2019-02-20T16:24:00.465Z,13.88
2019-02-20T16:28:52.900Z,12.37
2019-02-20T16:33:45.643Z,15.25
2019-02-20T16:38:38.564Z,14.53
2019-02-20T16:43:31.506Z,18.70
2019-02-20T16:48:24.289Z,12.73
2019-02-20T16:53:16.461Z,18.65
2019-02-20T16:58:09.001Z,12.85
2019-02-20T17:03:02.293Z,53.20
2019-02-20T17:07:55.058Z,106.40
2019-02-20T17:12:47.553Z,109.80
2019-02-20T17:17:40.025Z,220.80
2019-02-20T17:22:32.685Z,199.27
2019-02-20T17:27:26.241Z,118.70
2019-02-20T17:32:18.894Z,150.53
2019-02-20T17:37:11.917Z,172.17
2019-02-20T17:42:24.049Z,105.60
2019-02-20T17:47:16.571Z,84.33
2019-02-20T17:52:09.378Z,72.87
2019-02-20T17:57:02.546Z,54.23
2019-02-20T18:01:55.117Z,86.10
2019-02-20T18:06:47.430Z,69.10
2019-02-20T18:11:40.603Z,62.37
2019-02-20T18:16:32.986Z,84.53
2019-02-20T18:21:25.690Z,59.07
2019-02-20T18:26:18.314Z,65.63
2019-02-20T18:31:10.801Z,54.03
2019-02-20T18:36:04.909Z,48.67
2019-02-20T18:40:57.247Z,36.67
2019-02-20T18:45:49.334Z,30.53
2019-02-20T18:50:41.935Z,43.33
2019-02-20T18:55:34.653Z,32.90
2019-02-20T19:00:28.030Z,30.53
2019-02-20T19:05:21.356Z,34.33
2019-02-20T19:10:35.955Z,28.57
2019-02-20T19:15:31.085Z,14.90
2019-02-20T19:20:35.200Z,17.57
2019-02-20T19:25:45.285Z,32.53
2019-02-20T19:31:09.366Z,26.20
2019-02-20T19:36:18.107Z,29.87
2019-02-20T19:41:16.269Z,27.00
2019-02-20T19:46:29.997Z,23.73
2019-02-20T19:51:25.146Z,33.23
2019-02-20T19:56:35.963Z,39.63
2019-02-20T20:01:45.902Z,23.40
2019-02-20T20:06:47.267Z,24.50
2019-02-20T20:11:44.911Z,26.33
2019-02-20T20:16:42.295Z,22.37
2019-02-20T20:21:39.643Z,20.80
2019-02-20T20:26:37.849Z,19.37
2019-02-20T20:31:39.309Z,16.90
2019-02-20T20:36:34.829Z,15.20
2019-02-20T20:41:33.013Z,17.30
2019-02-20T20:46:46.940Z,17.33
2019-02-20T20:52:01.751Z,23.17
2019-02-20T20:57:24.393Z,25.37
2019-02-20T21:02:20.296Z,22.17
2019-02-20T21:07:22.205Z,19.70
2019-02-20T21:12:45.190Z,40.07
2019-02-20T21:17:43.741Z,20.83
2019-02-20T21:22:53.999Z,20.67
2019-02-20T21:28:14.753Z,16.40
2019-02-20T21:33:31.198Z,18.23
2019-02-20T21:38:52.430Z,18.87
2019-02-20T21:43:53.897Z,21.43
2019-02-20T21:49:04.210Z,21.60
2019-02-20T21:54:02.656Z,16.10
2019-02-20T21:59:06.557Z,13.53
2019-02-20T22:04:19.960Z,20.20
2019-02-20T22:09:27.246Z,25.77
2019-02-20T22:14:25.382Z,13.67
2019-02-20T22:19:33.241Z,11.17
2019-02-20T22:24:34.580Z,20.63
2019-02-20T22:30:03.340Z,16.93
2019-02-20T22:35:07.494Z,11.57
2019-02-20T22:40:31.910Z,13.80
2019-02-20T22:45:33.654Z,27.77
2019-02-20T22:50:53.946Z,18.70
2019-02-20T22:55:51.936Z,13.13
2019-02-20T23:01:17.207Z,16.07
2019-02-20T23:06:15.693Z,14.87
2019-02-20T23:11:14.212Z,15.17
2019-02-20T23:16:06.736Z,15.93
2019-02-20T23:20:59.169Z,15.63
2019-02-20T23:25:51.365Z,17.53
2019-02-20T23:30:45.087Z,14.50
2019-02-20T23:35:37.845Z,13.70
2019-02-20T23:40:30.234Z,14.73
2019-02-20T23:45:22.834Z,14.80
2019-02-20T23:50:15.336Z,14.77
2019-02-20T23:55:07.718Z,16.20
